sensor_id;sensor_type;location;lat;lon;timestamp;P1;durP1;ratioP1;P2;durP2;ratioP2
22565;SDS011;11449;51.330;19.378;2023-02-15T00:01:06;84.80;;;26.80;;
22565;SDS011;11449;51.330;19.378;2023-02-15T00:06:14;88.40;;;26.50;;
22565;SDS011;11449;51.330;19.378;2023-02-15T00:11:23;97.10;;;26.60;;
22565;SDS011;11449;51.330;19.378;2023-02-15T00:16:51;104.40;;;27.90;;
22565;SDS011;11449;51.330;19.378;2023-02-15T00:22:00;79.70;;;26.20;;
22565;SDS011;11449;51.330;19.378;2023-02-15T00:27:08;109.20;;;28.90;;
22565;SDS011;11449;51.330;19.378;2023-02-15T00:32:16;88.20;;;29.20;;
22565;SDS011;11449;51.330;19.378;2023-02-15T00:37:24;91.70;;;30.40;;
22565;SDS011;11449;51.330;19.378;2023-02-15T00:42:31;102.30;;;30.00;;
22565;SDS011;11449;51.330;19.378;2023-02-15T00:47:39;81.80;;;24.60;;
22565;SDS011;11449;51.330;19.378;2023-02-15T00:52:47;83.30;;;29.50;;
22565;SDS011;11449;51.330;19.378;2023-02-15T00:57:55;99.40;;;30.60;;
22565;SDS011;11449;51.330;19.378;2023-02-15T01:03:02;90.80;;;30.00;;
22565;SDS011;11449;51.330;19.378;2023-02-15T01:08:11;82.90;;;30.60;;
22565;SDS011;11449;51.330;19.378;2023-02-15T01:13:19;96.10;;;33.80;;
22565;SDS011;11449;51.330;19.378;2023-02-15T01:18:29;95.20;;;32.60;;
22565;SDS011;11449;51.330;19.378;2023-02-15T01:23:37;82.30;;;28.70;;
22565;SDS011;11449;51.330;19.378;2023-02-15T01:28:45;74.00;;;21.30;;
22565;SDS011;11449;51.330;19.378;2023-02-15T01:33:53;95.00;;;29.50;;
22565;SDS011;11449;51.330;19.378;2023-02-15T01:39:00;79.80;;;25.50;;
22565;SDS011;11449;51.330;19.378;2023-02-15T01:49:35;77.00;;;21.70;;
22565;SDS011;11449;51.330;19.378;2023-02-15T01:54:43;62.70;;;20.60;;
22565;SDS011;11449;51.330;19.378;2023-02-15T01:59:53;72.60;;;22.50;;
22565;SDS011;11449;51.330;19.378;2023-02-15T02:05:14;103.60;;;26.90;;
22565;SDS011;11449;51.330;19.378;2023-02-15T02:10:22;81.40;;;25.50;;
22565;SDS011;11449;51.330;19.378;2023-02-15T02:15:39;77.50;;;26.50;;
22565;SDS011;11449;51.330;19.378;2023-02-15T02:20:54;73.10;;;22.90;;
22565;SDS011;11449;51.330;19.378;2023-02-15T02:41:34;85.70;;;26.50;;
22565;SDS011;11449;51.330;19.378;2023-02-15T02:57:39;87.20;;;22.80;;
22565;SDS011;11449;51.330;19.378;2023-02-15T03:02:50;98.50;;;25.10;;
22565;SDS011;11449;51.330;19.378;2023-02-15T03:08:00;95.00;;;26.40;;
22565;SDS011;11449;51.330;19.378;2023-02-15T03:13:13;83.60;;;27.10;;
22565;SDS011;11449;51.330;19.378;2023-02-15T03:18:24;84.00;;;25.40;;
22565;SDS011;11449;51.330;19.378;2023-02-15T03:23:33;72.50;;;22.90;;
22565;SDS011;11449;51.330;19.378;2023-02-15T03:28:43;69.30;;;20.80;;
22565;SDS011;11449;51.330;19.378;2023-02-15T03:33:54;76.00;;;21.80;;
22565;SDS011;11449;51.330;19.378;2023-02-15T03:39:11;71.70;;;20.70;;
22565;SDS011;11449;51.330;19.378;2023-02-15T03:44:30;87.10;;;23.80;;
22565;SDS011;11449;51.330;19.378;2023-02-15T03:49:46;66.20;;;21.20;;
22565;SDS011;11449;51.330;19.378;2023-02-15T03:54:56;70.20;;;20.50;;
22565;SDS011;11449;51.330;19.378;2023-02-15T04:00:05;77.70;;;22.20;;
22565;SDS011;11449;51.330;19.378;2023-02-15T04:05:32;70.60;;;23.50;;
22565;SDS011;11449;51.330;19.378;2023-02-15T04:10:40;65.00;;;20.40;;
22565;SDS011;11449;51.330;19.378;2023-02-15T04:15:59;74.20;;;20.80;;
22565;SDS011;11449;51.330;19.378;2023-02-15T04:21:13;66.40;;;21.50;;
22565;SDS011;11449;51.330;19.378;2023-02-15T04:26:39;62.70;;;21.00;;
22565;SDS011;11449;51.330;19.378;2023-02-15T04:31:47;67.20;;;19.80;;
22565;SDS011;11449;51.330;19.378;2023-02-15T04:36:55;81.90;;;23.00;;
22565;SDS011;11449;51.330;19.378;2023-02-15T04:42:02;97.30;;;26.80;;
22565;SDS011;11449;51.330;19.378;2023-02-15T04:47:10;103.00;;;26.00;;
22565;SDS011;11449;51.330;19.378;2023-02-15T04:52:18;71.90;;;22.40;;
22565;SDS011;11449;51.330;19.378;2023-02-15T04:57:26;70.80;;;22.30;;
22565;SDS011;11449;51.330;19.378;2023-02-15T05:02:33;66.70;;;21.20;;
22565;SDS011;11449;51.330;19.378;2023-02-15T05:07:41;73.00;;;22.10;;
22565;SDS011;11449;51.330;19.378;2023-02-15T05:12:48;63.70;;;20.90;;
22565;SDS011;11449;51.330;19.378;2023-02-15T05:17:56;87.70;;;30.90;;
22565;SDS011;11449;51.330;19.378;2023-02-15T05:23:04;74.70;;;23.60;;
22565;SDS011;11449;51.330;19.378;2023-02-15T05:28:11;71.60;;;23.00;;
22565;SDS011;11449;51.330;19.378;2023-02-15T05:33:28;73.40;;;24.10;;
22565;SDS011;11449;51.330;19.378;2023-02-15T05:38:36;64.30;;;21.80;;
22565;SDS011;11449;51.330;19.378;2023-02-15T05:43:47;70.10;;;23.50;;
22565;SDS011;11449;51.330;19.378;2023-02-15T05:48:55;64.20;;;22.40;;
22565;SDS011;11449;51.330;19.378;2023-02-15T05:54:02;85.00;;;28.10;;
22565;SDS011;11449;51.330;19.378;2023-02-15T05:59:10;79.00;;;25.50;;
22565;SDS011;11449;51.330;19.378;2023-02-15T06:04:18;77.20;;;26.50;;
22565;SDS011;11449;51.330;19.378;2023-02-15T06:09:26;70.50;;;23.40;;
22565;SDS011;11449;51.330;19.378;2023-02-15T06:14:33;79.70;;;26.90;;
22565;SDS011;11449;51.330;19.378;2023-02-15T06:19:41;81.60;;;29.90;;
22565;SDS011;11449;51.330;19.378;2023-02-15T06:24:49;90.90;;;29.00;;
22565;SDS011;11449;51.330;19.378;2023-02-15T06:29:57;87.80;;;31.80;;
22565;SDS011;11449;51.330;19.378;2023-02-15T06:35:04;98.70;;;32.20;;
22565;SDS011;11449;51.330;19.378;2023-02-15T06:40:12;91.90;;;31.30;;
22565;SDS011;11449;51.330;19.378;2023-02-15T06:45:20;101.60;;;31.40;;
22565;SDS011;11449;51.330;19.378;2023-02-15T06:50:28;96.40;;;29.00;;
22565;SDS011;11449;51.330;19.378;2023-02-15T06:55:35;80.40;;;28.90;;
22565;SDS011;11449;51.330;19.378;2023-02-15T07:00:43;97.80;;;29.80;;
22565;SDS011;11449;51.330;19.378;2023-02-15T07:05:58;112.00;;;30.80;;
22565;SDS011;11449;51.330;19.378;2023-02-15T07:11:06;107.30;;;32.70;;
22565;SDS011;11449;51.330;19.378;2023-02-15T07:16:32;107.60;;;30.90;;
22565;SDS011;11449;51.330;19.378;2023-02-15T07:21:40;93.80;;;30.10;;
22565;SDS011;11449;51.330;19.378;2023-02-15T07:26:48;105.10;;;31.30;;
22565;SDS011;11449;51.330;19.378;2023-02-15T07:31:55;113.30;;;36.00;;
22565;SDS011;11449;51.330;19.378;2023-02-15T07:37:03;110.30;;;33.00;;
22565;SDS011;11449;51.330;19.378;2023-02-15T07:42:11;121.10;;;34.80;;
22565;SDS011;11449;51.330;19.378;2023-02-15T07:47:19;104.30;;;29.30;;
22565;SDS011;11449;51.330;19.378;2023-02-15T07:52:27;120.00;;;33.00;;
22565;SDS011;11449;51.330;19.378;2023-02-15T07:57:35;106.00;;;30.60;;
22565;SDS011;11449;51.330;19.378;2023-02-15T08:02:47;95.00;;;25.70;;
22565;SDS011;11449;51.330;19.378;2023-02-15T08:07:55;111.50;;;33.80;;
22565;SDS011;11449;51.330;19.378;2023-02-15T08:13:03;119.40;;;34.10;;
22565;SDS011;11449;51.330;19.378;2023-02-15T08:18:11;118.50;;;34.30;;
22565;SDS011;11449;51.330;19.378;2023-02-15T08:23:18;164.40;;;34.60;;
22565;SDS011;11449;51.330;19.378;2023-02-15T08:28:26;144.50;;;37.20;;
22565;SDS011;11449;51.330;19.378;2023-02-15T08:33:34;125.60;;;33.40;;
22565;SDS011;11449;51.330;19.378;2023-02-15T08:38:42;135.00;;;34.20;;
22565;SDS011;11449;51.330;19.378;2023-02-15T08:43:53;134.40;;;35.30;;
22565;SDS011;11449;51.330;19.378;2023-02-15T08:49:02;122.10;;;33.50;;
22565;SDS011;11449;51.330;19.378;2023-02-15T08:54:15;123.90;;;33.90;;
22565;SDS011;11449;51.330;19.378;2023-02-15T08:59:23;130.40;;;41.10;;
22565;SDS011;11449;51.330;19.378;2023-02-15T09:04:32;125.60;;;34.80;;
22565;SDS011;11449;51.330;19.378;2023-02-15T09:09:40;119.30;;;35.10;;
22565;SDS011;11449;51.330;19.378;2023-02-15T09:14:47;119.00;;;36.70;;
22565;SDS011;11449;51.330;19.378;2023-02-15T09:19:55;120.90;;;33.30;;
22565;SDS011;11449;51.330;19.378;2023-02-15T09:25:03;121.20;;;36.80;;
22565;SDS011;11449;51.330;19.378;2023-02-15T09:30:10;115.50;;;33.70;;
22565;SDS011;11449;51.330;19.378;2023-02-15T09:35:18;141.10;;;33.90;;
22565;SDS011;11449;51.330;19.378;2023-02-15T09:40:26;105.60;;;32.10;;
22565;SDS011;11449;51.330;19.378;2023-02-15T09:51:04;125.90;;;35.60;;
22565;SDS011;11449;51.330;19.378;2023-02-15T10:27:47;109.50;;;32.80;;
22565;SDS011;11449;51.330;19.378;2023-02-15T10:32:59;106.30;;;30.50;;
22565;SDS011;11449;51.330;19.378;2023-02-15T10:48:52;132.00;;;29.70;;
22565;SDS011;11449;51.330;19.378;2023-02-15T10:54:09;113.30;;;33.40;;
22565;SDS011;11449;51.330;19.378;2023-02-15T10:59:30;105.30;;;35.70;;
22565;SDS011;11449;51.330;19.378;2023-02-15T11:09:51;96.90;;;28.90;;
22565;SDS011;11449;51.330;19.378;2023-02-15T11:30:28;93.90;;;29.00;;
22565;SDS011;11449;51.330;19.378;2023-02-15T11:35:47;99.90;;;33.90;;
22565;SDS011;11449;51.330;19.378;2023-02-15T11:40:57;93.80;;;30.00;;
22565;SDS011;11449;51.330;19.378;2023-02-15T11:46:07;84.60;;;28.50;;
22565;SDS011;11449;51.330;19.378;2023-02-15T11:51:18;89.50;;;29.60;;
22565;SDS011;11449;51.330;19.378;2023-02-15T11:56:26;102.50;;;32.00;;
22565;SDS011;11449;51.330;19.378;2023-02-15T12:01:35;86.10;;;27.90;;
22565;SDS011;11449;51.330;19.378;2023-02-15T12:06:44;98.20;;;32.90;;
22565;SDS011;11449;51.330;19.378;2023-02-15T12:11:54;93.60;;;30.90;;
22565;SDS011;11449;51.330;19.378;2023-02-15T12:17:36;90.20;;;29.40;;
22565;SDS011;11449;51.330;19.378;2023-02-15T12:22:46;91.00;;;27.40;;
22565;SDS011;11449;51.330;19.378;2023-02-15T12:27:56;71.60;;;24.20;;
22565;SDS011;11449;51.330;19.378;2023-02-15T12:38:24;93.70;;;29.60;;
22565;SDS011;11449;51.330;19.378;2023-02-15T12:43:34;97.40;;;29.60;;
22565;SDS011;11449;51.330;19.378;2023-02-15T12:48:42;95.90;;;30.30;;
22565;SDS011;11449;51.330;19.378;2023-02-15T12:53:50;106.70;;;32.40;;
22565;SDS011;11449;51.330;19.378;2023-02-15T12:59:04;167.40;;;35.30;;
22565;SDS011;11449;51.330;19.378;2023-02-15T13:04:21;96.40;;;27.90;;
22565;SDS011;11449;51.330;19.378;2023-02-15T13:19:53;104.10;;;29.20;;
22565;SDS011;11449;51.330;19.378;2023-02-15T13:25:11;111.70;;;31.30;;
22565;SDS011;11449;51.330;19.378;2023-02-15T13:35:39;99.50;;;27.40;;
22565;SDS011;11449;51.330;19.378;2023-02-15T13:40:53;106.90;;;28.90;;
22565;SDS011;11449;51.330;19.378;2023-02-15T13:46:23;114.50;;;29.90;;
22565;SDS011;11449;51.330;19.378;2023-02-15T13:51:55;88.70;;;27.30;;
22565;SDS011;11449;51.330;19.378;2023-02-15T13:57:54;103.10;;;30.80;;
22565;SDS011;11449;51.330;19.378;2023-02-15T14:07:56;123.00;;;32.80;;
22565;SDS011;11449;51.330;19.378;2023-02-15T14:13:17;113.20;;;30.40;;
22565;SDS011;11449;51.330;19.378;2023-02-15T14:18:45;106.30;;;29.20;;
22565;SDS011;11449;51.330;19.378;2023-02-15T14:34:26;96.60;;;28.30;;
22565;SDS011;11449;51.330;19.378;2023-02-15T14:39:43;90.00;;;29.60;;
22565;SDS011;11449;51.330;19.378;2023-02-15T14:55:35;88.70;;;26.50;;
22565;SDS011;11449;51.330;19.378;2023-02-15T15:00:44;91.10;;;27.00;;
22565;SDS011;11449;51.330;19.378;2023-02-15T15:05:52;96.60;;;29.40;;
22565;SDS011;11449;51.330;19.378;2023-02-15T15:32:22;91.90;;;25.90;;
22565;SDS011;11449;51.330;19.378;2023-02-15T15:37:40;105.80;;;27.70;;
22565;SDS011;11449;51.330;19.378;2023-02-15T15:43:10;105.40;;;29.70;;
22565;SDS011;11449;51.330;19.378;2023-02-15T15:53:40;101.20;;;27.30;;
22565;SDS011;11449;51.330;19.378;2023-02-15T15:58:54;97.70;;;25.50;;
22565;SDS011;11449;51.330;19.378;2023-02-15T16:04:02;72.40;;;23.20;;
22565;SDS011;11449;51.330;19.378;2023-02-15T16:09:16;88.00;;;23.70;;
22565;SDS011;11449;51.330;19.378;2023-02-15T16:14:32;86.00;;;24.30;;
22565;SDS011;11449;51.330;19.378;2023-02-15T16:19:40;86.30;;;26.70;;
22565;SDS011;11449;51.330;19.378;2023-02-15T16:29:56;100.10;;;32.00;;
22565;SDS011;11449;51.330;19.378;2023-02-15T16:35:12;201.50;;;58.60;;
22565;SDS011;11449;51.330;19.378;2023-02-15T16:45:31;132.10;;;36.20;;
22565;SDS011;11449;51.330;19.378;2023-02-15T16:50:39;112.50;;;33.00;;
22565;SDS011;11449;51.330;19.378;2023-02-15T16:55:49;114.70;;;32.70;;
22565;SDS011;11449;51.330;19.378;2023-02-15T17:00:58;117.00;;;33.70;;
22565;SDS011;11449;51.330;19.378;2023-02-15T17:06:18;106.30;;;30.50;;
22565;SDS011;11449;51.330;19.378;2023-02-15T17:11:36;126.80;;;34.20;;
22565;SDS011;11449;51.330;19.378;2023-02-15T17:16:53;133.80;;;35.00;;
22565;SDS011;11449;51.330;19.378;2023-02-15T17:22:03;113.00;;;32.90;;
22565;SDS011;11449;51.330;19.378;2023-02-15T17:27:18;123.50;;;31.50;;
22565;SDS011;11449;51.330;19.378;2023-02-15T17:32:29;153.70;;;38.20;;
22565;SDS011;11449;51.330;19.378;2023-02-15T17:42:45;133.60;;;40.60;;
22565;SDS011;11449;51.330;19.378;2023-02-15T17:47:53;139.30;;;37.50;;
22565;SDS011;11449;51.330;19.378;2023-02-15T17:53:01;117.00;;;33.50;;
22565;SDS011;11449;51.330;19.378;2023-02-15T17:58:12;114.40;;;33.20;;
22565;SDS011;11449;51.330;19.378;2023-02-15T18:03:20;137.30;;;36.80;;
22565;SDS011;11449;51.330;19.378;2023-02-15T18:08:47;118.60;;;35.60;;
22565;SDS011;11449;51.330;19.378;2023-02-15T18:14:13;149.80;;;47.10;;
22565;SDS011;11449;51.330;19.378;2023-02-15T18:19:22;150.30;;;47.50;;
22565;SDS011;11449;51.330;19.378;2023-02-15T18:24:30;155.70;;;48.20;;
22565;SDS011;11449;51.330;19.378;2023-02-15T18:29:38;129.20;;;40.30;;
22565;SDS011;11449;51.330;19.378;2023-02-15T18:34:46;132.30;;;42.70;;
22565;SDS011;11449;51.330;19.378;2023-02-15T18:39:55;140.60;;;42.40;;
22565;SDS011;11449;51.330;19.378;2023-02-15T18:45:18;125.10;;;41.30;;
22565;SDS011;11449;51.330;19.378;2023-02-15T18:50:28;147.80;;;40.80;;
22565;SDS011;11449;51.330;19.378;2023-02-15T18:55:37;149.40;;;41.90;;
22565;SDS011;11449;51.330;19.378;2023-02-15T19:00:45;153.30;;;47.20;;
22565;SDS011;11449;51.330;19.378;2023-02-15T19:05:54;160.20;;;48.40;;
22565;SDS011;11449;51.330;19.378;2023-02-15T19:11:02;160.40;;;47.70;;
22565;SDS011;11449;51.330;19.378;2023-02-15T19:16:29;152.80;;;45.80;;
22565;SDS011;11449;51.330;19.378;2023-02-15T19:21:38;142.90;;;46.10;;
22565;SDS011;11449;51.330;19.378;2023-02-15T19:26:46;146.10;;;42.50;;
22565;SDS011;11449;51.330;19.378;2023-02-15T19:31:54;141.60;;;42.60;;
22565;SDS011;11449;51.330;19.378;2023-02-15T19:37:02;126.20;;;38.40;;
22565;SDS011;11449;51.330;19.378;2023-02-15T19:42:15;156.40;;;44.00;;
22565;SDS011;11449;51.330;19.378;2023-02-15T19:47:26;188.10;;;47.50;;
22565;SDS011;11449;51.330;19.378;2023-02-15T19:52:34;202.10;;;58.30;;
22565;SDS011;11449;51.330;19.378;2023-02-15T19:57:42;160.10;;;52.80;;
22565;SDS011;11449;51.330;19.378;2023-02-15T20:02:49;197.00;;;66.00;;
22565;SDS011;11449;51.330;19.378;2023-02-15T20:07:57;169.30;;;55.30;;
22565;SDS011;11449;51.330;19.378;2023-02-15T20:13:05;161.10;;;46.70;;
22565;SDS011;11449;51.330;19.378;2023-02-15T20:18:13;198.70;;;71.40;;
22565;SDS011;11449;51.330;19.378;2023-02-15T20:23:24;165.00;;;53.40;;
22565;SDS011;11449;51.330;19.378;2023-02-15T20:28:32;184.80;;;54.80;;
22565;SDS011;11449;51.330;19.378;2023-02-15T20:33:40;244.80;;;67.40;;
22565;SDS011;11449;51.330;19.378;2023-02-15T20:38:48;197.00;;;54.80;;
22565;SDS011;11449;51.330;19.378;2023-02-15T20:43:56;179.40;;;48.90;;
22565;SDS011;11449;51.330;19.378;2023-02-15T20:49:04;154.10;;;45.70;;
22565;SDS011;11449;51.330;19.378;2023-02-15T20:54:15;135.70;;;39.10;;
22565;SDS011;11449;51.330;19.378;2023-02-15T20:59:27;126.50;;;37.70;;
22565;SDS011;11449;51.330;19.378;2023-02-15T21:04:37;149.20;;;43.00;;
22565;SDS011;11449;51.330;19.378;2023-02-15T21:09:44;151.30;;;42.10;;
22565;SDS011;11449;51.330;19.378;2023-02-15T21:14:52;153.10;;;46.10;;
22565;SDS011;11449;51.330;19.378;2023-02-15T21:20:00;143.40;;;44.10;;
22565;SDS011;11449;51.330;19.378;2023-02-15T21:25:12;172.30;;;52.40;;
22565;SDS011;11449;51.330;19.378;2023-02-15T21:30:21;175.20;;;52.50;;
22565;SDS011;11449;51.330;19.378;2023-02-15T21:35:29;172.10;;;48.60;;
22565;SDS011;11449;51.330;19.378;2023-02-15T21:40:36;135.90;;;45.90;;
22565;SDS011;11449;51.330;19.378;2023-02-15T21:45:44;147.10;;;48.60;;
22565;SDS011;11449;51.330;19.378;2023-02-15T21:51:11;155.10;;;52.70;;
22565;SDS011;11449;51.330;19.378;2023-02-15T21:56:37;190.40;;;66.40;;
22565;SDS011;11449;51.330;19.378;2023-02-15T22:01:48;156.70;;;49.30;;
22565;SDS011;11449;51.330;19.378;2023-02-15T22:06:56;160.80;;;47.80;;
22565;SDS011;11449;51.330;19.378;2023-02-15T22:12:04;160.20;;;50.10;;
22565;SDS011;11449;51.330;19.378;2023-02-15T22:17:23;161.30;;;54.30;;
22565;SDS011;11449;51.330;19.378;2023-02-15T22:22:37;145.90;;;49.80;;
22565;SDS011;11449;51.330;19.378;2023-02-15T22:27:45;141.00;;;48.20;;
22565;SDS011;11449;51.330;19.378;2023-02-15T22:32:54;138.00;;;46.30;;
22565;SDS011;11449;51.330;19.378;2023-02-15T22:38:02;141.10;;;49.20;;
22565;SDS011;11449;51.330;19.378;2023-02-15T22:43:19;144.90;;;48.70;;
22565;SDS011;11449;51.330;19.378;2023-02-15T22:48:28;156.40;;;49.00;;
22565;SDS011;11449;51.330;19.378;2023-02-15T22:53:35;142.70;;;48.70;;
22565;SDS011;11449;51.330;19.378;2023-02-15T22:58:43;155.30;;;50.10;;
22565;SDS011;11449;51.330;19.378;2023-02-15T23:03:51;158.90;;;51.10;;
22565;SDS011;11449;51.330;19.378;2023-02-15T23:08:59;161.80;;;50.40;;
22565;SDS011;11449;51.330;19.378;2023-02-15T23:14:15;171.70;;;50.90;;
22565;SDS011;11449;51.330;19.378;2023-02-15T23:19:29;150.90;;;52.40;;
22565;SDS011;11449;51.330;19.378;2023-02-15T23:24:37;137.30;;;45.80;;
22565;SDS011;11449;51.330;19.378;2023-02-15T23:29:45;161.00;;;49.20;;
22565;SDS011;11449;51.330;19.378;2023-02-15T23:34:53;169.30;;;50.40;;
22565;SDS011;11449;51.330;19.378;2023-02-15T23:40:00;165.40;;;50.60;;
22565;SDS011;11449;51.330;19.378;2023-02-15T23:45:27;143.50;;;50.80;;
22565;SDS011;11449;51.330;19.378;2023-02-15T23:50:35;138.30;;;48.40;;
22565;SDS011;11449;51.330;19.378;2023-02-15T23:55:42;161.00;;;56.50;;
